createdAt,value
2023-04-16T00:00:14.000Z,1020.1
2023-04-16T00:01:14.000Z,1020.08
2023-04-16T00:02:15.000Z,1020.1
2023-04-16T00:03:15.000Z,1020.16
2023-04-16T00:04:16.000Z,1020.12
2023-04-16T00:05:16.000Z,1020.15
2023-04-16T00:06:17.000Z,1020.19
2023-04-16T00:07:17.000Z,1020.17
2023-04-16T00:08:18.000Z,1020.19
2023-04-16T00:09:18.000Z,1020.18
2023-04-16T00:10:19.000Z,1020.17
2023-04-16T00:11:19.000Z,1020.22
2023-04-16T00:12:19.000Z,1020.19
2023-04-16T00:13:20.000Z,1020.19
2023-04-16T00:14:20.000Z,1020.21
2023-04-16T00:15:21.000Z,1020.22
2023-04-16T00:16:21.000Z,1020.25
2023-04-16T00:17:22.000Z,1020.24
2023-04-16T00:18:22.000Z,1020.22
2023-04-16T00:19:23.000Z,1020.22
2023-04-16T00:20:23.000Z,1020.24
2023-04-16T00:21:24.000Z,1020.26
2023-04-16T00:22:24.000Z,1020.21
2023-04-16T00:23:25.000Z,1020.23
2023-04-16T00:24:25.000Z,1020.27
2023-04-16T00:25:26.000Z,1020.22
2023-04-16T00:26:26.000Z,1020.25
2023-04-16T00:27:27.000Z,1020.25
2023-04-16T00:28:28.000Z,1020.2
2023-04-16T00:29:28.000Z,1020.26
2023-04-16T00:30:29.000Z,1020.25
2023-04-16T00:31:29.000Z,1020.25
2023-04-16T00:32:30.000Z,1020.28
2023-04-16T00:33:30.000Z,1020.29
2023-04-16T00:34:31.000Z,1020.27
2023-04-16T00:35:31.000Z,1020.35
2023-04-16T00:36:32.000Z,1020.3
2023-04-16T00:37:32.000Z,1020.34
2023-04-16T00:38:32.000Z,1020.29
2023-04-16T00:39:33.000Z,1020.33
2023-04-16T00:40:33.000Z,1020.34
2023-04-16T00:41:34.000Z,1020.33
2023-04-16T00:42:34.000Z,1020.35
2023-04-16T00:43:35.000Z,1020.32
2023-04-16T00:44:35.000Z,1020.34
2023-04-16T00:45:36.000Z,1020.31
2023-04-16T00:46:36.000Z,1020.31
2023-04-16T00:47:37.000Z,1020.27
2023-04-16T00:48:37.000Z,1020.24
2023-04-16T00:49:38.000Z,1020.26
2023-04-16T00:50:38.000Z,1020.3
2023-04-16T00:51:39.000Z,1020.29
2023-04-16T00:52:39.000Z,1020.27
2023-04-16T00:53:39.000Z,1020.31
2023-04-16T00:54:40.000Z,1020.31
2023-04-16T00:55:40.000Z,1020.34
2023-04-16T00:56:41.000Z,1020.38
2023-04-16T00:57:41.000Z,1020.33
2023-04-16T00:58:42.000Z,1020.33
2023-04-16T00:59:42.000Z,1020.41
2023-04-16T01:00:43.000Z,1020.39
2023-04-16T01:01:43.000Z,1020.42
2023-04-16T01:02:44.000Z,1020.43
2023-04-16T01:03:44.000Z,1020.46
2023-04-16T01:04:45.000Z,1020.48
2023-04-16T01:05:45.000Z,1020.51
2023-04-16T01:06:46.000Z,1020.48
2023-04-16T01:07:46.000Z,1020.47
2023-04-16T01:08:47.000Z,1020.54
2023-04-16T01:09:47.000Z,1020.56
2023-04-16T01:10:48.000Z,1020.55
2023-04-16T01:11:48.000Z,1020.59
2023-04-16T01:12:49.000Z,1020.61
2023-04-16T01:13:50.000Z,1020.55
2023-04-16T01:14:50.000Z,1020.6
2023-04-16T01:15:50.000Z,1020.6
2023-04-16T01:16:51.000Z,1020.57
2023-04-16T01:17:52.000Z,1020.58
2023-04-16T01:18:52.000Z,1020.59
2023-04-16T01:19:53.000Z,1020.64
2023-04-16T01:20:53.000Z,1020.65
2023-04-16T01:21:53.000Z,1020.65
2023-04-16T01:22:54.000Z,1020.66
2023-04-16T01:23:54.000Z,1020.67
2023-04-16T01:24:55.000Z,1020.66
2023-04-16T01:25:55.000Z,1020.67
2023-04-16T01:26:56.000Z,1020.66
2023-04-16T01:27:56.000Z,1020.67
2023-04-16T01:28:57.000Z,1020.73
2023-04-16T01:29:57.000Z,1020.71
2023-04-16T01:30:58.000Z,1020.76
2023-04-16T01:31:58.000Z,1020.71
2023-04-16T01:32:59.000Z,1020.74
2023-04-16T01:33:59.000Z,1020.77
2023-04-16T01:35:00.000Z,1020.73
2023-04-16T01:36:00.000Z,1020.77
2023-04-16T01:37:01.000Z,1020.77
2023-04-16T01:38:01.000Z,1020.69
2023-04-16T01:39:01.000Z,1020.7
2023-04-16T01:40:02.000Z,1020.76
2023-04-16T01:41:02.000Z,1020.75
2023-04-16T01:42:03.000Z,1020.78
2023-04-16T01:43:03.000Z,1020.78
2023-04-16T01:44:04.000Z,1020.76
2023-04-16T01:45:04.000Z,1020.77
2023-04-16T01:46:05.000Z,1020.79
2023-04-16T01:47:05.000Z,1020.75
2023-04-16T01:48:06.000Z,1020.77
2023-04-16T01:49:06.000Z,1020.75
2023-04-16T01:50:07.000Z,1020.77
2023-04-16T01:51:07.000Z,1020.74
2023-04-16T01:52:08.000Z,1020.76
2023-04-16T01:53:08.000Z,1020.81
2023-04-16T01:54:09.000Z,1020.82
2023-04-16T01:55:09.000Z,1020.8
2023-04-16T01:56:10.000Z,1020.8
2023-04-16T01:57:10.000Z,1020.79
2023-04-16T01:58:11.000Z,1020.79
2023-04-16T01:59:11.000Z,1020.78
2023-04-16T02:00:11.000Z,1020.78
2023-04-16T02:01:12.000Z,1020.84
2023-04-16T02:02:12.000Z,1020.83
2023-04-16T02:03:13.000Z,1020.84
2023-04-16T02:04:13.000Z,1020.8
2023-04-16T02:05:14.000Z,1020.7
2023-04-16T02:06:14.000Z,1020.78
2023-04-16T02:07:15.000Z,1020.74
2023-04-16T02:08:15.000Z,1020.78
2023-04-16T02:09:16.000Z,1020.8
2023-04-16T02:10:16.000Z,1020.78
2023-04-16T02:11:17.000Z,1020.7
2023-04-16T02:12:17.000Z,1020.75
2023-04-16T02:13:17.000Z,1020.71
2023-04-16T02:14:18.000Z,1020.79
2023-04-16T02:15:18.000Z,1020.73
2023-04-16T02:16:19.000Z,1020.7
2023-04-16T02:17:19.000Z,1020.69
2023-04-16T02:18:20.000Z,1020.73
2023-04-16T02:19:20.000Z,1020.72
2023-04-16T02:20:20.000Z,1020.73
2023-04-16T02:21:21.000Z,1020.72
2023-04-16T02:22:21.000Z,1020.7
2023-04-16T02:23:22.000Z,1020.67
2023-04-16T02:24:22.000Z,1020.72
2023-04-16T02:25:23.000Z,1020.71
2023-04-16T02:26:23.000Z,1020.72
2023-04-16T02:27:24.000Z,1020.77
2023-04-16T02:28:24.000Z,1020.78
2023-04-16T02:29:25.000Z,1020.72
2023-04-16T02:30:25.000Z,1020.74
2023-04-16T02:31:25.000Z,1020.77
2023-04-16T02:32:26.000Z,1020.77
2023-04-16T02:33:26.000Z,1020.73
2023-04-16T02:34:27.000Z,1020.77
2023-04-16T02:35:27.000Z,1020.75
2023-04-16T02:36:33.000Z,1020.82
2023-04-16T02:37:33.000Z,1020.78
2023-04-16T02:38:34.000Z,1020.8
2023-04-16T02:39:34.000Z,1020.8
2023-04-16T02:40:35.000Z,1020.81
2023-04-16T02:41:35.000Z,1020.82
2023-04-16T02:42:35.000Z,1020.85
2023-04-16T02:43:36.000Z,1020.86
2023-04-16T02:44:36.000Z,1020.9
2023-04-16T02:45:37.000Z,1020.9
2023-04-16T02:46:37.000Z,1020.87
2023-04-16T02:47:38.000Z,1020.91
2023-04-16T02:48:38.000Z,1020.93
2023-04-16T02:49:39.000Z,1020.85
2023-04-16T02:50:39.000Z,1020.88
2023-04-16T02:51:40.000Z,1020.9
2023-04-16T02:52:40.000Z,1020.9
2023-04-16T02:53:41.000Z,1020.92
2023-04-16T02:54:41.000Z,1020.93
2023-04-16T02:55:42.000Z,1020.9
2023-04-16T02:56:42.000Z,1020.9
2023-04-16T02:57:43.000Z,1020.95
2023-04-16T02:58:43.000Z,1020.98
2023-04-16T02:59:44.000Z,1020.92
2023-04-16T03:00:44.000Z,1020.97
2023-04-16T03:01:45.000Z,1020.95
2023-04-16T03:02:50.000Z,1021.03
2023-04-16T03:03:51.000Z,1021.06
2023-04-16T03:04:51.000Z,1021.1
2023-04-16T03:05:51.000Z,1021.07
2023-04-16T03:06:52.000Z,1021.06
2023-04-16T03:07:53.000Z,1021.08
2023-04-16T03:08:53.000Z,1021.07
2023-04-16T03:09:54.000Z,1021.06
2023-04-16T03:10:54.000Z,1021.05
2023-04-16T03:11:55.000Z,1021.06
2023-04-16T03:12:55.000Z,1021.1
2023-04-16T03:13:56.000Z,1021.13
2023-04-16T03:14:56.000Z,1021.09
2023-04-16T03:15:57.000Z,1021.08
2023-04-16T03:16:57.000Z,1021.13
2023-04-16T03:17:58.000Z,1021.12
2023-04-16T03:18:58.000Z,1021.11
2023-04-16T03:19:59.000Z,1021.16
2023-04-16T03:20:59.000Z,1021.11
2023-04-16T03:22:00.000Z,1021.13
2023-04-16T03:23:00.000Z,1021.17
2023-04-16T03:24:01.000Z,1021.14
2023-04-16T03:25:01.000Z,1021.11
2023-04-16T03:26:02.000Z,1021.16
2023-04-16T03:27:02.000Z,1021.15
2023-04-16T03:28:03.000Z,1021.19
2023-04-16T03:29:03.000Z,1021.18
2023-04-16T03:30:04.000Z,1021.17
2023-04-16T03:31:04.000Z,1021.18
2023-04-16T03:32:05.000Z,1021.25
2023-04-16T03:33:05.000Z,1021.21
2023-04-16T03:34:06.000Z,1021.2
2023-04-16T03:35:06.000Z,1021.24
2023-04-16T03:36:07.000Z,1021.2
2023-04-16T03:37:08.000Z,1021.24
2023-04-16T03:38:08.000Z,1021.24
2023-04-16T03:39:09.000Z,1021.25
2023-04-16T03:40:09.000Z,1021.29
2023-04-16T03:41:10.000Z,1021.23
2023-04-16T03:42:10.000Z,1021.26
2023-04-16T03:43:16.000Z,1021.28
2023-04-16T03:44:16.000Z,1021.28
2023-04-16T03:45:17.000Z,1021.31
2023-04-16T03:46:17.000Z,1021.36
2023-04-16T03:47:18.000Z,1021.38
2023-04-16T03:48:18.000Z,1021.36
2023-04-16T03:49:19.000Z,1021.34
2023-04-16T03:50:19.000Z,1021.33
2023-04-16T03:51:20.000Z,1021.25
2023-04-16T03:52:20.000Z,1021.31
2023-04-16T03:53:21.000Z,1021.24
2023-04-16T03:54:21.000Z,1021.31
2023-04-16T03:55:22.000Z,1021.33
2023-04-16T03:56:22.000Z,1021.3
2023-04-16T03:57:23.000Z,1021.28
2023-04-16T03:58:23.000Z,1021.3
2023-04-16T03:59:24.000Z,1021.39
2023-04-16T04:00:24.000Z,1021.31
2023-04-16T04:01:25.000Z,1021.38
2023-04-16T04:02:25.000Z,1021.36
2023-04-16T04:03:26.000Z,1021.4
2023-04-16T04:04:26.000Z,1021.38
2023-04-16T04:05:27.000Z,1021.42
2023-04-16T04:06:27.000Z,1021.45
2023-04-16T04:07:28.000Z,1021.43
2023-04-16T04:08:28.000Z,1021.44
2023-04-16T04:09:30.000Z,1021.47
2023-04-16T04:10:30.000Z,1021.45
2023-04-16T04:11:31.000Z,1021.51
2023-04-16T04:12:31.000Z,1021.5
2023-04-16T04:13:32.000Z,1021.49
2023-04-16T04:14:32.000Z,1021.5
2023-04-16T04:15:33.000Z,1021.52
2023-04-16T04:16:33.000Z,1021.51
2023-04-16T04:17:34.000Z,1021.55
2023-04-16T04:18:34.000Z,1021.54
2023-04-16T04:19:35.000Z,1021.56
2023-04-16T04:20:35.000Z,1021.54
2023-04-16T04:21:36.000Z,1021.57
2023-04-16T04:22:36.000Z,1021.61
2023-04-16T04:23:37.000Z,1021.57
2023-04-16T04:24:37.000Z,1021.6
2023-04-16T04:25:38.000Z,1021.63
2023-04-16T04:26:38.000Z,1021.58
2023-04-16T04:27:39.000Z,1021.59
2023-04-16T04:28:39.000Z,1021.59
2023-04-16T04:29:40.000Z,1021.56
2023-04-16T04:30:40.000Z,1021.57
2023-04-16T04:31:41.000Z,1021.58
2023-04-16T04:32:41.000Z,1021.61
2023-04-16T04:33:47.000Z,1021.61
2023-04-16T04:34:47.000Z,1021.55
2023-04-16T04:35:48.000Z,1021.58
2023-04-16T04:36:48.000Z,1021.58
2023-04-16T04:37:49.000Z,1021.62
2023-04-16T04:38:49.000Z,1021.58
2023-04-16T04:39:50.000Z,1021.65
2023-04-16T04:40:50.000Z,1021.64
2023-04-16T04:41:51.000Z,1021.65
2023-04-16T04:42:51.000Z,1021.76
2023-04-16T04:43:52.000Z,1021.66
2023-04-16T04:44:52.000Z,1021.75
2023-04-16T04:45:53.000Z,1021.74
2023-04-16T04:46:53.000Z,1021.82
2023-04-16T04:47:54.000Z,1021.82
2023-04-16T04:48:54.000Z,1021.81
2023-04-16T04:49:55.000Z,1021.86
2023-04-16T04:50:55.000Z,1021.83
2023-04-16T04:51:56.000Z,1021.88
2023-04-16T04:52:57.000Z,1021.84
2023-04-16T04:53:57.000Z,1021.84
2023-04-16T04:54:58.000Z,1021.85
2023-04-16T04:56:03.000Z,1021.9
2023-04-16T04:57:03.000Z,1021.88
2023-04-16T04:58:04.000Z,1021.88
2023-04-16T04:59:04.000Z,1021.88
2023-04-16T05:00:05.000Z,1021.88
2023-04-16T05:01:05.000Z,1021.91
2023-04-16T05:02:06.000Z,1021.92
2023-04-16T05:03:06.000Z,1021.92
2023-04-16T05:04:07.000Z,1021.95
2023-04-16T05:05:07.000Z,1021.96
2023-04-16T05:06:08.000Z,1021.96
2023-04-16T05:07:08.000Z,1021.88
2023-04-16T05:08:09.000Z,1021.94
2023-04-16T05:09:09.000Z,1021.96
2023-04-16T05:10:10.000Z,1021.97
2023-04-16T05:11:10.000Z,1021.97
2023-04-16T05:12:11.000Z,1021.97
2023-04-16T05:13:11.000Z,1022.01
2023-04-16T05:14:12.000Z,1022.03
2023-04-16T05:15:13.000Z,1022.04
2023-04-16T05:16:13.000Z,1022.07
2023-04-16T05:17:14.000Z,1022.09
2023-04-16T05:18:14.000Z,1022.08
2023-04-16T05:19:15.000Z,1022.07
2023-04-16T05:20:15.000Z,1022.11
2023-04-16T05:21:16.000Z,1022.08
2023-04-16T05:22:17.000Z,1022.1
2023-04-16T05:23:17.000Z,1022.13
2023-04-16T05:24:18.000Z,1022.16
2023-04-16T05:25:18.000Z,1022.1
2023-04-16T05:26:19.000Z,1022.15
2023-04-16T05:27:19.000Z,1022.17
2023-04-16T05:28:20.000Z,1022.17
2023-04-16T05:29:20.000Z,1022.18
2023-04-16T05:30:21.000Z,1022.17
2023-04-16T05:31:21.000Z,1022.23
2023-04-16T05:32:22.000Z,1022.19
2023-04-16T05:33:22.000Z,1022.19
2023-04-16T05:34:23.000Z,1022.23
2023-04-16T05:35:23.000Z,1022.25
2023-04-16T05:36:24.000Z,1022.22
2023-04-16T05:37:24.000Z,1022.18
2023-04-16T05:38:25.000Z,1022.14
2023-04-16T05:39:25.000Z,1022.15
2023-04-16T05:40:26.000Z,1022.15
2023-04-16T05:41:26.000Z,1022.18
2023-04-16T05:42:27.000Z,1022.18
2023-04-16T05:43:27.000Z,1022.17
2023-04-16T05:44:28.000Z,1022.19
2023-04-16T05:45:28.000Z,1022.18
2023-04-16T05:46:29.000Z,1022.22
2023-04-16T05:47:29.000Z,1022.23
2023-04-16T05:48:30.000Z,1022.24
2023-04-16T05:49:30.000Z,1022.29
2023-04-16T05:50:31.000Z,1022.23
2023-04-16T05:51:32.000Z,1022.21
2023-04-16T05:52:32.000Z,1022.24
2023-04-16T05:53:33.000Z,1022.25
2023-04-16T05:54:33.000Z,1022.31
2023-04-16T05:55:34.000Z,1022.32
2023-04-16T05:56:34.000Z,1022.34
2023-04-16T05:57:35.000Z,1022.34
2023-04-16T05:58:35.000Z,1022.35
2023-04-16T05:59:36.000Z,1022.37
2023-04-16T06:00:36.000Z,1022.39
2023-04-16T06:01:36.000Z,1022.32
2023-04-16T06:02:37.000Z,1022.37
2023-04-16T06:03:37.000Z,1022.41
2023-04-16T06:04:38.000Z,1022.46
2023-04-16T06:05:38.000Z,1022.46
2023-04-16T06:06:39.000Z,1022.5
2023-04-16T06:07:39.000Z,1022.46
2023-04-16T06:08:40.000Z,1022.49
2023-04-16T06:09:40.000Z,1022.49
2023-04-16T06:10:41.000Z,1022.49
2023-04-16T06:11:42.000Z,1022.51
2023-04-16T06:12:42.000Z,1022.51
2023-04-16T06:13:42.000Z,1022.52
2023-04-16T06:14:43.000Z,1022.55
2023-04-16T06:15:44.000Z,1022.5
2023-04-16T06:16:44.000Z,1022.5
2023-04-16T06:17:45.000Z,1022.5
2023-04-16T06:18:45.000Z,1022.49
2023-04-16T06:19:46.000Z,1022.5
2023-04-16T06:20:46.000Z,1022.54
2023-04-16T06:21:47.000Z,1022.52
2023-04-16T06:22:47.000Z,1022.52
2023-04-16T06:23:48.000Z,1022.55
2023-04-16T06:24:48.000Z,1022.57
2023-04-16T06:25:48.000Z,1022.52
2023-04-16T06:26:49.000Z,1022.52
2023-04-16T06:27:49.000Z,1022.59
2023-04-16T06:28:50.000Z,1022.56
2023-04-16T06:29:50.000Z,1022.6
2023-04-16T06:30:51.000Z,1022.61
2023-04-16T06:31:52.000Z,1022.6
2023-04-16T06:32:52.000Z,1022.62
2023-04-16T06:33:53.000Z,1022.67
2023-04-16T06:34:53.000Z,1022.7
2023-04-16T06:35:54.000Z,1022.7
2023-04-16T06:36:54.000Z,1022.7
2023-04-16T06:37:55.000Z,1022.63
2023-04-16T06:38:55.000Z,1022.64
2023-04-16T06:39:56.000Z,1022.7
2023-04-16T06:40:56.000Z,1022.73
2023-04-16T06:41:56.000Z,1022.69
2023-04-16T06:42:57.000Z,1022.71
2023-04-16T06:43:57.000Z,1022.77
2023-04-16T06:44:58.000Z,1022.84
2023-04-16T06:45:58.000Z,1022.86
2023-04-16T06:46:59.000Z,1022.85
2023-04-16T06:47:59.000Z,1022.86
2023-04-16T06:49:00.000Z,1022.83
2023-04-16T06:50:01.000Z,1022.86
2023-04-16T06:51:01.000Z,1022.79
2023-04-16T06:52:02.000Z,1022.86
2023-04-16T06:53:02.000Z,1022.89
2023-04-16T06:54:03.000Z,1022.93
2023-04-16T06:55:03.000Z,1022.95
2023-04-16T06:56:04.000Z,1022.96
2023-04-16T06:57:04.000Z,1022.98
2023-04-16T06:58:05.000Z,1022.97
2023-04-16T06:59:05.000Z,1022.98
2023-04-16T07:00:06.000Z,1022.95
2023-04-16T07:01:06.000Z,1022.97
2023-04-16T07:02:07.000Z,1022.94
2023-04-16T07:03:07.000Z,1022.95
2023-04-16T07:04:08.000Z,1022.97
2023-04-16T07:05:08.000Z,1022.9
2023-04-16T07:06:09.000Z,1022.99
2023-04-16T07:07:09.000Z,1022.95
2023-04-16T07:08:10.000Z,1022.92
2023-04-16T07:09:10.000Z,1022.92
2023-04-16T07:10:11.000Z,1022.96
2023-04-16T07:11:11.000Z,1022.97
2023-04-16T07:12:12.000Z,1022.94
2023-04-16T07:13:12.000Z,1022.96
2023-04-16T07:14:13.000Z,1022.91
2023-04-16T07:15:13.000Z,1022.95
2023-04-16T07:16:14.000Z,1022.99
2023-04-16T07:17:14.000Z,1023.0
2023-04-16T07:18:15.000Z,1022.98
2023-04-16T07:19:15.000Z,1022.99
2023-04-16T07:20:16.000Z,1023.0
2023-04-16T07:21:16.000Z,1023.04
2023-04-16T07:22:17.000Z,1023.01
2023-04-16T07:23:17.000Z,1023.0
2023-04-16T07:24:18.000Z,1023.01
2023-04-16T07:25:18.000Z,1023.02
2023-04-16T07:26:19.000Z,1023.07
2023-04-16T07:27:19.000Z,1023.04
2023-04-16T07:28:20.000Z,1023.12
2023-04-16T07:29:20.000Z,1023.11
2023-04-16T07:30:21.000Z,1023.15
2023-04-16T07:31:21.000Z,1023.16
2023-04-16T07:32:22.000Z,1023.18
2023-04-16T07:33:22.000Z,1023.19
2023-04-16T07:34:23.000Z,1023.2
2023-04-16T07:35:23.000Z,1023.29
2023-04-16T07:36:23.000Z,1023.27
2023-04-16T07:37:24.000Z,1023.27
2023-04-16T07:38:24.000Z,1023.3
2023-04-16T07:39:25.000Z,1023.34
2023-04-16T07:40:25.000Z,1023.33
2023-04-16T07:41:26.000Z,1023.37
2023-04-16T07:42:26.000Z,1023.36
2023-04-16T07:43:27.000Z,1023.41
2023-04-16T07:44:27.000Z,1023.37
2023-04-16T07:45:28.000Z,1023.4
2023-04-16T07:46:28.000Z,1023.38
2023-04-16T07:47:29.000Z,1023.36
2023-04-16T07:48:29.000Z,1023.44
2023-04-16T07:49:29.000Z,1023.43
2023-04-16T07:50:30.000Z,1023.43
2023-04-16T07:51:30.000Z,1023.39
2023-04-16T07:52:31.000Z,1023.37
2023-04-16T07:53:31.000Z,1023.39
2023-04-16T07:54:32.000Z,1023.44
2023-04-16T07:55:32.000Z,1023.43
2023-04-16T07:56:32.000Z,1023.4
2023-04-16T07:57:33.000Z,1023.42
2023-04-16T07:58:33.000Z,1023.39
2023-04-16T07:59:34.000Z,1023.47
2023-04-16T08:00:34.000Z,1023.44
2023-04-16T08:01:35.000Z,1023.46
2023-04-16T08:02:35.000Z,1023.47
2023-04-16T08:03:35.000Z,1023.5
2023-04-16T08:04:36.000Z,1023.51
2023-04-16T08:05:36.000Z,1023.49
2023-04-16T08:06:37.000Z,1023.51
2023-04-16T08:07:37.000Z,1023.53
2023-04-16T08:08:38.000Z,1023.52
2023-04-16T08:09:38.000Z,1023.55
2023-04-16T08:10:39.000Z,1023.57
2023-04-16T08:11:39.000Z,1023.52
2023-04-16T08:12:39.000Z,1023.49
2023-04-16T08:13:40.000Z,1023.51
2023-04-16T08:14:40.000Z,1023.52
2023-04-16T08:15:41.000Z,1023.53
2023-04-16T08:16:41.000Z,1023.48
2023-04-16T08:17:42.000Z,1023.55
2023-04-16T08:18:42.000Z,1023.55
2023-04-16T08:19:43.000Z,1023.55
2023-04-16T08:20:43.000Z,1023.56
2023-04-16T08:21:44.000Z,1023.57
2023-04-16T08:22:44.000Z,1023.62
2023-04-16T08:23:45.000Z,1023.6
2023-04-16T08:24:45.000Z,1023.66
2023-04-16T08:25:46.000Z,1023.68
2023-04-16T08:26:46.000Z,1023.66
2023-04-16T08:27:46.000Z,1023.68
2023-04-16T08:28:47.000Z,1023.71
2023-04-16T08:29:47.000Z,1023.69
2023-04-16T08:30:48.000Z,1023.66
2023-04-16T08:31:48.000Z,1023.71
2023-04-16T08:32:49.000Z,1023.73
2023-04-16T08:33:49.000Z,1023.72
2023-04-16T08:34:50.000Z,1023.75
2023-04-16T08:35:50.000Z,1023.72
2023-04-16T08:36:50.000Z,1023.75
2023-04-16T08:37:51.000Z,1023.8
2023-04-16T08:38:52.000Z,1023.84
2023-04-16T08:39:52.000Z,1023.82
2023-04-16T08:40:53.000Z,1023.82
2023-04-16T08:41:53.000Z,1023.82
2023-04-16T08:42:54.000Z,1023.84
2023-04-16T08:43:54.000Z,1023.88
2023-04-16T08:44:55.000Z,1023.87
2023-04-16T08:45:55.000Z,1023.87
2023-04-16T08:46:55.000Z,1023.85
2023-04-16T08:48:01.000Z,1023.89
2023-04-16T08:49:02.000Z,1023.84
2023-04-16T08:50:02.000Z,1023.85
2023-04-16T08:51:02.000Z,1023.87
2023-04-16T08:52:03.000Z,1023.87
2023-04-16T08:53:03.000Z,1023.88
2023-04-16T08:54:04.000Z,1023.84
2023-04-16T08:55:04.000Z,1023.83
2023-04-16T08:56:05.000Z,1023.9
2023-04-16T08:57:05.000Z,1023.91
2023-04-16T08:58:06.000Z,1023.97
2023-04-16T08:59:06.000Z,1023.98
2023-04-16T09:00:07.000Z,1023.97
2023-04-16T09:01:07.000Z,1024.0
2023-04-16T09:02:07.000Z,1024.01
2023-04-16T09:03:08.000Z,1023.99
2023-04-16T09:04:08.000Z,1023.92
2023-04-16T09:05:09.000Z,1024.02
2023-04-16T09:06:09.000Z,1024.03
2023-04-16T09:07:10.000Z,1024.04
2023-04-16T09:08:10.000Z,1024.04
2023-04-16T09:09:11.000Z,1024.03
2023-04-16T09:10:11.000Z,1024.05
2023-04-16T09:11:11.000Z,1024.08
2023-04-16T09:12:12.000Z,1024.06
2023-04-16T09:13:12.000Z,1023.98
2023-04-16T09:14:13.000Z,1024.06
2023-04-16T09:15:13.000Z,1024.07
2023-04-16T09:16:13.000Z,1024.06
2023-04-16T09:17:14.000Z,1024.08
2023-04-16T09:18:14.000Z,1024.14
2023-04-16T09:19:15.000Z,1024.1
2023-04-16T09:20:15.000Z,1024.12
2023-04-16T09:21:16.000Z,1024.14
2023-04-16T09:22:16.000Z,1024.12
2023-04-16T09:23:16.000Z,1024.14
2023-04-16T09:24:17.000Z,1024.15
2023-04-16T09:25:17.000Z,1024.23
2023-04-16T09:26:19.000Z,1024.18
2023-04-16T09:27:19.000Z,1024.21
2023-04-16T09:28:19.000Z,1024.26
2023-04-16T09:29:20.000Z,1024.28
2023-04-16T09:30:20.000Z,1024.26
2023-04-16T09:31:21.000Z,1024.27
2023-04-16T09:32:21.000Z,1024.24
2023-04-16T09:33:21.000Z,1024.28
2023-04-16T09:34:22.000Z,1024.26
2023-04-16T09:35:22.000Z,1024.27
2023-04-16T09:36:23.000Z,1024.27
2023-04-16T09:37:23.000Z,1024.25
2023-04-16T09:38:24.000Z,1024.23
2023-04-16T09:39:29.000Z,1024.28
2023-04-16T09:40:30.000Z,1024.28
2023-04-16T09:41:30.000Z,1024.22
2023-04-16T09:42:30.000Z,1024.28
2023-04-16T09:43:31.000Z,1024.3
2023-04-16T09:44:31.000Z,1024.18
2023-04-16T09:45:32.000Z,1024.25
2023-04-16T09:46:32.000Z,1024.26
2023-04-16T09:47:32.000Z,1024.21
2023-04-16T09:48:33.000Z,1024.27
2023-04-16T09:49:33.000Z,1024.27
2023-04-16T09:50:33.000Z,1024.21
2023-04-16T09:51:34.000Z,1024.23
2023-04-16T09:52:34.000Z,1024.29
2023-04-16T09:53:35.000Z,1024.26
2023-04-16T09:54:35.000Z,1024.29
2023-04-16T09:55:36.000Z,1024.29
2023-04-16T09:56:36.000Z,1024.31
2023-04-16T09:57:37.000Z,1024.28
2023-04-16T09:58:37.000Z,1024.3
2023-04-16T09:59:37.000Z,1024.28
2023-04-16T10:00:38.000Z,1024.34
2023-04-16T10:01:43.000Z,1024.31
2023-04-16T10:02:43.000Z,1024.31
2023-04-16T10:03:44.000Z,1024.3
2023-04-16T10:04:44.000Z,1024.23
2023-04-16T10:05:44.000Z,1024.31
2023-04-16T10:06:45.000Z,1024.33
2023-04-16T10:07:45.000Z,1024.37
2023-04-16T10:08:46.000Z,1024.37
2023-04-16T10:09:46.000Z,1024.41
2023-04-16T10:10:46.000Z,1024.42
2023-04-16T10:11:47.000Z,1024.41
2023-04-16T10:12:47.000Z,1024.43
2023-04-16T10:13:47.000Z,1024.46
2023-04-16T10:14:48.000Z,1024.51
2023-04-16T10:15:48.000Z,1024.48
2023-04-16T10:16:49.000Z,1024.52
2023-04-16T10:17:49.000Z,1024.49
2023-04-16T10:18:49.000Z,1024.46
2023-04-16T10:19:50.000Z,1024.51
2023-04-16T10:20:50.000Z,1024.52
2023-04-16T10:21:51.000Z,1024.56
2023-04-16T10:22:51.000Z,1024.51
2023-04-16T10:23:51.000Z,1024.5
2023-04-16T10:24:52.000Z,1024.56
2023-04-16T10:25:52.000Z,1024.53
2023-04-16T10:26:53.000Z,1024.56
2023-04-16T10:27:53.000Z,1024.6
2023-04-16T10:28:53.000Z,1024.57
2023-04-16T10:29:54.000Z,1024.56
2023-04-16T10:30:54.000Z,1024.56
2023-04-16T10:31:55.000Z,1024.63
2023-04-16T10:32:55.000Z,1024.56
2023-04-16T10:33:55.000Z,1024.58
2023-04-16T10:34:56.000Z,1024.57
2023-04-16T10:35:56.000Z,1024.58
2023-04-16T10:36:57.000Z,1024.58
2023-04-16T10:37:57.000Z,1024.63
2023-04-16T10:38:58.000Z,1024.58
2023-04-16T10:39:58.000Z,1024.64
2023-04-16T10:40:58.000Z,1024.6
2023-04-16T10:41:59.000Z,1024.61
2023-04-16T10:42:59.000Z,1024.63
2023-04-16T10:44:00.000Z,1024.59
2023-04-16T10:45:00.000Z,1024.63
2023-04-16T10:46:00.000Z,1024.6
2023-04-16T10:47:01.000Z,1024.6
2023-04-16T10:48:01.000Z,1024.65
2023-04-16T10:49:02.000Z,1024.62
2023-04-16T10:50:02.000Z,1024.58
2023-04-16T10:51:02.000Z,1024.61
2023-04-16T10:52:03.000Z,1024.61
2023-04-16T10:53:03.000Z,1024.61
2023-04-16T10:54:03.000Z,1024.62
2023-04-16T10:55:04.000Z,1024.63
2023-04-16T10:56:09.000Z,1024.6
2023-04-16T10:57:10.000Z,1024.61
2023-04-16T10:58:10.000Z,1024.62
2023-04-16T10:59:10.000Z,1024.7
2023-04-16T11:00:11.000Z,1024.73
2023-04-16T11:01:11.000Z,1024.74
2023-04-16T11:02:12.000Z,1024.76
2023-04-16T11:03:12.000Z,1024.75
2023-04-16T11:04:13.000Z,1024.83
2023-04-16T11:05:13.000Z,1024.84
2023-04-16T11:06:13.000Z,1024.79
2023-04-16T11:07:14.000Z,1024.79
2023-04-16T11:08:14.000Z,1024.78
2023-04-16T11:09:14.000Z,1024.77
2023-04-16T11:10:15.000Z,1024.81
2023-04-16T11:11:15.000Z,1024.81
2023-04-16T11:12:16.000Z,1024.88
2023-04-16T11:13:16.000Z,1024.84
2023-04-16T11:14:17.000Z,1024.85
2023-04-16T11:15:17.000Z,1024.89
2023-04-16T11:16:17.000Z,1024.81
2023-04-16T11:17:18.000Z,1024.86
2023-04-16T11:18:18.000Z,1024.85
2023-04-16T11:19:19.000Z,1024.82
2023-04-16T11:20:19.000Z,1024.93
2023-04-16T11:21:20.000Z,1024.89
2023-04-16T11:22:20.000Z,1024.9
2023-04-16T11:23:20.000Z,1024.93
2023-04-16T11:24:21.000Z,1024.92
2023-04-16T11:25:21.000Z,1024.96
2023-04-16T11:26:22.000Z,1024.89
2023-04-16T11:27:22.000Z,1024.95
2023-04-16T11:28:22.000Z,1024.91
2023-04-16T11:29:23.000Z,1025.0
2023-04-16T11:30:23.000Z,1025.01
2023-04-16T11:31:23.000Z,1024.99
2023-04-16T11:32:24.000Z,1025.02
2023-04-16T11:33:24.000Z,1025.05
2023-04-16T11:34:25.000Z,1025.03
2023-04-16T11:35:25.000Z,1025.07
2023-04-16T11:36:25.000Z,1025.08
2023-04-16T11:37:26.000Z,1025.05
2023-04-16T11:38:26.000Z,1025.12
2023-04-16T11:39:27.000Z,1025.07
2023-04-16T11:40:27.000Z,1025.1
2023-04-16T11:41:28.000Z,1025.08
2023-04-16T11:42:28.000Z,1025.08
2023-04-16T11:43:28.000Z,1025.1
2023-04-16T11:44:29.000Z,1025.09
2023-04-16T11:45:29.000Z,1025.12
2023-04-16T11:46:29.000Z,1025.09
2023-04-16T11:47:30.000Z,1025.12
2023-04-16T11:48:30.000Z,1025.13
2023-04-16T11:49:31.000Z,1025.15
2023-04-16T11:50:31.000Z,1025.16
2023-04-16T11:51:32.000Z,1025.12
2023-04-16T11:52:32.000Z,1025.16
2023-04-16T11:53:32.000Z,1025.16
2023-04-16T11:54:33.000Z,1025.13
2023-04-16T11:55:33.000Z,1025.14
2023-04-16T11:56:38.000Z,1025.13
2023-04-16T11:57:39.000Z,1025.2
2023-04-16T11:58:39.000Z,1025.17
2023-04-16T11:59:40.000Z,1025.18
2023-04-16T12:00:40.000Z,1025.19
2023-04-16T12:01:40.000Z,1025.23
2023-04-16T12:02:41.000Z,1025.25
2023-04-16T12:03:41.000Z,1025.22
2023-04-16T12:04:42.000Z,1025.21
2023-04-16T12:05:42.000Z,1025.22
2023-04-16T12:06:42.000Z,1025.25
2023-04-16T12:07:43.000Z,1025.27
2023-04-16T12:08:43.000Z,1025.27
2023-04-16T12:09:44.000Z,1025.24
2023-04-16T12:10:44.000Z,1025.18
2023-04-16T12:11:45.000Z,1025.15
2023-04-16T12:12:45.000Z,1025.18
2023-04-16T12:13:45.000Z,1025.17
2023-04-16T12:14:46.000Z,1025.14